sensor_id;sensor_type;location;lat;lon;timestamp;pressure;altitude;pressure_sealevel;temperature;humidity
36192;BME280;22233;42.708;23.360;2023-05-16T00:37:39;95123.94;;;16.54;71.84
36192;BME280;22233;42.708;23.360;2023-05-16T02:44:26;95028.50;;;16.05;72.29
36192;BME280;22233;42.708;23.360;2023-05-16T02:46:55;95030.91;;;15.90;72.73
36192;BME280;22233;42.708;23.360;2023-05-16T03:44:46;95000.13;;;16.52;71.91
36192;BME280;22233;42.708;23.360;2023-05-16T03:47:12;95002.94;;;16.55;70.94
36192;BME280;22233;42.708;23.360;2023-05-16T03:56:21;95004.50;;;15.66;74.16
36192;BME280;22233;42.708;23.360;2023-05-16T03:59:05;95004.59;;;15.86;74.01
36192;BME280;22233;42.708;23.360;2023-05-16T04:01:39;95008.81;;;15.99;73.05
36192;BME280;22233;42.708;23.360;2023-05-16T04:04:04;95003.63;;;16.13;72.97
36192;BME280;22233;42.708;23.360;2023-05-16T04:06:39;94999.84;;;16.37;71.70
36192;BME280;22233;42.708;23.360;2023-05-16T04:09:05;95004.41;;;16.30;72.27
36192;BME280;22233;42.708;23.360;2023-05-16T04:11:37;94982.78;;;16.09;72.37
36192;BME280;22233;42.708;23.360;2023-05-16T04:14:08;95010.28;;;16.12;72.87
36192;BME280;22233;42.708;23.360;2023-05-16T04:16:43;95011.97;;;16.36;71.98
36192;BME280;22233;42.708;23.360;2023-05-16T04:19:48;95019.31;;;16.32;72.09
36192;BME280;22233;42.708;23.360;2023-05-16T04:22:23;95007.06;;;16.26;71.91
36192;BME280;22233;42.708;23.360;2023-05-16T04:24:49;95014.06;;;16.43;71.88
36192;BME280;22233;42.708;23.360;2023-05-16T04:27:15;95009.94;;;16.33;71.92
36192;BME280;22233;42.708;23.360;2023-05-16T04:29:41;95014.63;;;16.33;72.73
36192;BME280;22233;42.708;23.360;2023-05-16T04:32:09;95010.72;;;16.53;71.99
36192;BME280;22233;42.708;23.360;2023-05-16T04:34:35;95010.81;;;16.57;70.92
36192;BME280;22233;42.708;23.360;2023-05-16T04:37:04;95016.28;;;16.37;72.53
36192;BME280;22233;42.708;23.360;2023-05-16T04:39:34;95014.13;;;16.47;72.20
36192;BME280;22233;42.708;23.360;2023-05-16T04:42:00;94999.22;;;16.44;71.70
36192;BME280;22233;42.708;23.360;2023-05-16T04:44:26;95002.22;;;16.39;71.99
36192;BME280;22233;42.708;23.360;2023-05-16T04:46:52;95006.63;;;16.44;72.15
36192;BME280;22233;42.708;23.360;2023-05-16T04:49:20;94998.47;;;16.47;71.39
36192;BME280;22233;42.708;23.360;2023-05-16T04:51:47;94994.88;;;16.63;71.39
36192;BME280;22233;42.708;23.360;2023-05-16T04:54:13;95009.28;;;16.60;71.01
36192;BME280;22233;42.708;23.360;2023-05-16T04:56:38;95008.94;;;16.61;71.78
36192;BME280;22233;42.708;23.360;2023-05-16T04:59:04;95008.22;;;16.45;72.23
36192;BME280;22233;42.708;23.360;2023-05-16T05:01:29;95010.66;;;16.50;72.12
36192;BME280;22233;42.708;23.360;2023-05-16T05:03:55;94998.19;;;16.52;71.42
36192;BME280;22233;42.708;23.360;2023-05-16T05:06:20;94993.66;;;16.60;71.87
36192;BME280;22233;42.708;23.360;2023-05-16T05:08:46;95001.81;;;16.56;71.40
36192;BME280;22233;42.708;23.360;2023-05-16T05:11:11;94996.75;;;16.58;71.23
36192;BME280;22233;42.708;23.360;2023-05-16T05:13:37;95006.91;;;16.38;72.48
36192;BME280;22233;42.708;23.360;2023-05-16T05:16:02;95009.72;;;16.62;71.54
36192;BME280;22233;42.708;23.360;2023-05-16T05:18:29;95012.50;;;16.81;70.47
36192;BME280;22233;42.708;23.360;2023-05-16T05:20:55;95006.47;;;16.75;70.79
36192;BME280;22233;42.708;23.360;2023-05-16T05:23:20;94989.16;;;16.52;70.93
36192;BME280;22233;42.708;23.360;2023-05-16T05:25:46;95006.13;;;16.77;70.86
36192;BME280;22233;42.708;23.360;2023-05-16T05:28:11;95009.53;;;16.70;70.80
36192;BME280;22233;42.708;23.360;2023-05-16T05:30:37;95015.31;;;16.85;70.35
36192;BME280;22233;42.708;23.360;2023-05-16T05:33:02;95015.81;;;16.90;70.65
36192;BME280;22233;42.708;23.360;2023-05-16T05:35:28;95000.81;;;16.84;70.79
36192;BME280;22233;42.708;23.360;2023-05-16T05:37:53;94985.25;;;16.92;69.89
36192;BME280;22233;42.708;23.360;2023-05-16T05:40:18;94980.63;;;16.96;70.67
36192;BME280;22233;42.708;23.360;2023-05-16T05:42:44;94971.09;;;16.90;70.71
36192;BME280;22233;42.708;23.360;2023-05-16T05:45:10;94983.97;;;16.86;70.23
36192;BME280;22233;42.708;23.360;2023-05-16T05:47:35;94978.44;;;16.82;70.61
36192;BME280;22233;42.708;23.360;2023-05-16T05:50:02;94981.22;;;16.86;71.21
36192;BME280;22233;42.708;23.360;2023-05-16T05:52:28;94970.78;;;16.52;71.82
36192;BME280;22233;42.708;23.360;2023-05-16T05:54:53;94973.00;;;16.66;71.16
36192;BME280;22233;42.708;23.360;2023-05-16T05:57:19;94975.25;;;16.61;71.28
36192;BME280;22233;42.708;23.360;2023-05-16T05:59:45;94975.97;;;16.57;71.72
36192;BME280;22233;42.708;23.360;2023-05-16T06:02:11;94968.53;;;16.58;71.89
36192;BME280;22233;42.708;23.360;2023-05-16T06:04:36;94985.44;;;16.60;71.22
36192;BME280;22233;42.708;23.360;2023-05-16T06:07:03;94976.47;;;16.44;71.99
36192;BME280;22233;42.708;23.360;2023-05-16T06:09:28;94966.66;;;16.43;72.02
36192;BME280;22233;42.708;23.360;2023-05-16T06:11:54;94961.09;;;16.39;71.90
36192;BME280;22233;42.708;23.360;2023-05-16T06:14:19;94971.41;;;16.65;71.06
36192;BME280;22233;42.708;23.360;2023-05-16T06:16:45;94971.72;;;16.41;71.76
36192;BME280;22233;42.708;23.360;2023-05-16T06:19:10;94972.28;;;16.30;72.10
36192;BME280;22233;42.708;23.360;2023-05-16T06:21:40;94967.81;;;16.42;72.04
36192;BME280;22233;42.708;23.360;2023-05-16T06:24:05;94961.63;;;16.45;71.47
36192;BME280;22233;42.708;23.360;2023-05-16T06:26:32;94965.94;;;16.26;72.24
36192;BME280;22233;42.708;23.360;2023-05-16T06:28:57;94962.91;;;16.31;71.72
36192;BME280;22233;42.708;23.360;2023-05-16T06:31:23;94975.88;;;16.15;72.46
36192;BME280;22233;42.708;23.360;2023-05-16T06:33:48;94968.00;;;16.13;72.59
36192;BME280;22233;42.708;23.360;2023-05-16T06:36:13;94974.44;;;16.21;72.24
36192;BME280;22233;42.708;23.360;2023-05-16T06:38:39;94967.38;;;16.20;72.09
36192;BME280;22233;42.708;23.360;2023-05-16T06:41:04;94964.78;;;16.47;71.97
36192;BME280;22233;42.708;23.360;2023-05-16T06:43:30;94959.38;;;16.50;71.42
36192;BME280;22233;42.708;23.360;2023-05-16T06:45:55;94956.78;;;16.38;71.60
36192;BME280;22233;42.708;23.360;2023-05-16T06:48:21;94970.53;;;16.61;70.92
36192;BME280;22233;42.708;23.360;2023-05-16T06:50:49;94964.13;;;16.53;71.74
36192;BME280;22233;42.708;23.360;2023-05-16T06:53:18;94941.63;;;16.44;71.87
36192;BME280;22233;42.708;23.360;2023-05-16T06:55:44;94946.03;;;16.49;71.93
36192;BME280;22233;42.708;23.360;2023-05-16T06:58:09;94933.44;;;16.67;71.01
36192;BME280;22233;42.708;23.360;2023-05-16T07:00:35;94926.34;;;16.86;70.50
36192;BME280;22233;42.708;23.360;2023-05-16T07:03:01;94917.41;;;16.46;71.42
36192;BME280;22233;42.708;23.360;2023-05-16T07:05:26;94944.72;;;17.05;70.34
36192;BME280;22233;42.708;23.360;2023-05-16T07:07:51;94953.00;;;16.66;71.46
36192;BME280;22233;42.708;23.360;2023-05-16T07:10:17;94956.50;;;16.82;71.22
36192;BME280;22233;42.708;23.360;2023-05-16T07:12:42;94946.13;;;16.95;70.96
36192;BME280;22233;42.708;23.360;2023-05-16T07:15:08;94930.63;;;17.06;69.46
36192;BME280;22233;42.708;23.360;2023-05-16T07:17:34;94930.75;;;17.13;69.62
36192;BME280;22233;42.708;23.360;2023-05-16T07:19:59;94933.31;;;17.26;69.69
36192;BME280;22233;42.708;23.360;2023-05-16T07:22:25;94930.25;;;17.31;69.45
36192;BME280;22233;42.708;23.360;2023-05-16T07:24:50;94916.41;;;17.24;69.49
36192;BME280;22233;42.708;23.360;2023-05-16T07:27:18;94907.91;;;17.32;68.59
36192;BME280;22233;42.708;23.360;2023-05-16T07:29:43;94903.03;;;17.45;68.34
36192;BME280;22233;42.708;23.360;2023-05-16T07:32:09;94911.91;;;17.62;68.20
36192;BME280;22233;42.708;23.360;2023-05-16T07:34:34;94922.16;;;17.65;68.26
36192;BME280;22233;42.708;23.360;2023-05-16T07:37:00;94920.72;;;17.48;69.21
36192;BME280;22233;42.708;23.360;2023-05-16T07:39:25;94922.09;;;17.61;67.98
36192;BME280;22233;42.708;23.360;2023-05-16T07:41:50;94917.88;;;17.41;68.53
36192;BME280;22233;42.708;23.360;2023-05-16T07:44:16;94921.38;;;17.91;67.60
36192;BME280;22233;42.708;23.360;2023-05-16T07:46:41;94921.19;;;17.53;67.98
36192;BME280;22233;42.708;23.360;2023-05-16T07:49:09;94938.50;;;17.57;68.62
36192;BME280;22233;42.708;23.360;2023-05-16T07:51:34;94940.97;;;17.63;67.92
36192;BME280;22233;42.708;23.360;2023-05-16T07:54:00;94918.13;;;17.58;67.21
36192;BME280;22233;42.708;23.360;2023-05-16T07:56:26;94911.84;;;17.58;67.32
36192;BME280;22233;42.708;23.360;2023-05-16T07:58:51;94912.84;;;17.73;67.50
36192;BME280;22233;42.708;23.360;2023-05-16T08:01:17;94916.38;;;17.73;67.60
36192;BME280;22233;42.708;23.360;2023-05-16T08:03:43;94929.56;;;17.61;67.83
36192;BME280;22233;42.708;23.360;2023-05-16T08:06:08;94938.44;;;17.81;67.01
36192;BME280;22233;42.708;23.360;2023-05-16T08:08:34;94931.75;;;17.78;67.17
36192;BME280;22233;42.708;23.360;2023-05-16T08:11:00;94923.31;;;17.90;67.32
36192;BME280;22233;42.708;23.360;2023-05-16T08:13:25;94910.09;;;18.00;66.85
36192;BME280;22233;42.708;23.360;2023-05-16T08:15:50;94910.97;;;18.07;66.67
36192;BME280;22233;42.708;23.360;2023-05-16T08:18:16;94907.31;;;18.30;66.02
36192;BME280;22233;42.708;23.360;2023-05-16T08:20:41;94905.94;;;18.47;65.13
36192;BME280;22233;42.708;23.360;2023-05-16T08:23:08;94897.94;;;18.34;65.81
36192;BME280;22233;42.708;23.360;2023-05-16T08:25:34;94903.22;;;18.16;66.04
36192;BME280;22233;42.708;23.360;2023-05-16T08:28:00;94894.47;;;18.38;65.56
36192;BME280;22233;42.708;23.360;2023-05-16T08:30:28;94886.47;;;18.29;65.58
36192;BME280;22233;42.708;23.360;2023-05-16T08:32:54;94885.13;;;18.12;65.82
36192;BME280;22233;42.708;23.360;2023-05-16T08:35:19;94888.53;;;18.35;65.46
36192;BME280;22233;42.708;23.360;2023-05-16T08:37:45;94886.13;;;18.30;64.95
36192;BME280;22233;42.708;23.360;2023-05-16T08:40:11;94889.22;;;18.25;65.17
36192;BME280;22233;42.708;23.360;2023-05-16T08:42:38;94894.72;;;18.29;65.26
36192;BME280;22233;42.708;23.360;2023-05-16T08:45:04;94883.94;;;18.47;64.42
36192;BME280;22233;42.708;23.360;2023-05-16T08:47:31;94903.75;;;18.63;63.84
36192;BME280;22233;42.708;23.360;2023-05-16T08:49:57;94901.81;;;18.64;63.62
36192;BME280;22233;42.708;23.360;2023-05-16T08:52:26;94890.69;;;18.90;62.88
36192;BME280;22233;42.708;23.360;2023-05-16T08:55:01;94900.84;;;18.83;63.01
36192;BME280;22233;42.708;23.360;2023-05-16T08:57:31;94905.69;;;18.96;62.38
36192;BME280;22233;42.708;23.360;2023-05-16T08:59:57;94894.75;;;19.04;62.36
36192;BME280;22233;42.708;23.360;2023-05-16T09:02:23;94905.44;;;19.12;62.98
36192;BME280;22233;42.708;23.360;2023-05-16T09:04:48;94901.09;;;19.11;62.26
36192;BME280;22233;42.708;23.360;2023-05-16T09:07:14;94898.94;;;19.35;62.06
36192;BME280;22233;42.708;23.360;2023-05-16T09:09:41;94890.13;;;19.15;61.96
36192;BME280;22233;42.708;23.360;2023-05-16T09:12:07;94899.50;;;19.59;61.92
36192;BME280;22233;42.708;23.360;2023-05-16T09:14:32;94881.66;;;19.38;61.99
36192;BME280;22233;42.708;23.360;2023-05-16T09:17:08;94892.59;;;19.31;62.19
36192;BME280;22233;42.708;23.360;2023-05-16T09:19:40;94892.38;;;19.50;61.30
36192;BME280;22233;42.708;23.360;2023-05-16T09:22:13;94884.88;;;19.51;61.16
36192;BME280;22233;42.708;23.360;2023-05-16T09:24:43;94899.44;;;19.48;60.96
36192;BME280;22233;42.708;23.360;2023-05-16T09:27:11;94900.81;;;19.72;60.38
36192;BME280;22233;42.708;23.360;2023-05-16T09:29:44;94901.88;;;19.64;60.71
36192;BME280;22233;42.708;23.360;2023-05-16T09:32:12;94906.41;;;19.90;60.16
36192;BME280;22233;42.708;23.360;2023-05-16T09:34:46;94908.00;;;19.91;60.71
36192;BME280;22233;42.708;23.360;2023-05-16T09:37:17;94901.28;;;19.88;61.07
36192;BME280;22233;42.708;23.360;2023-05-16T09:39:47;94885.47;;;19.74;61.28
36192;BME280;22233;42.708;23.360;2023-05-16T09:42:14;94879.44;;;19.62;61.74
36192;BME280;22233;42.708;23.360;2023-05-16T09:44:40;94887.84;;;19.76;61.68
36192;BME280;22233;42.708;23.360;2023-05-16T09:47:06;94875.38;;;19.41;62.55
36192;BME280;22233;42.708;23.360;2023-05-16T09:49:31;94863.91;;;19.32;63.45
36192;BME280;22233;42.708;23.360;2023-05-16T09:52:01;94872.63;;;19.41;63.11
36192;BME280;22233;42.708;23.360;2023-05-16T09:54:31;94880.16;;;19.51;63.19
36192;BME280;22233;42.708;23.360;2023-05-16T09:56:57;94878.91;;;19.42;63.52
36192;BME280;22233;42.708;23.360;2023-05-16T09:59:23;94870.00;;;19.63;62.66
36192;BME280;22233;42.708;23.360;2023-05-16T10:01:49;94885.09;;;19.83;62.37
36192;BME280;22233;42.708;23.360;2023-05-16T10:04:15;94878.84;;;19.93;61.24
36192;BME280;22233;42.708;23.360;2023-05-16T10:06:41;94870.91;;;19.74;61.85
36192;BME280;22233;42.708;23.360;2023-05-16T10:09:10;94864.75;;;20.02;61.76
36192;BME280;22233;42.708;23.360;2023-05-16T10:11:38;94873.41;;;20.01;62.02
36192;BME280;22233;42.708;23.360;2023-05-16T10:14:06;94871.19;;;20.39;61.32
36192;BME280;22233;42.708;23.360;2023-05-16T10:16:34;94857.66;;;20.05;61.60
36192;BME280;22233;42.708;23.360;2023-05-16T10:19:02;94876.66;;;20.24;60.55
36192;BME280;22233;42.708;23.360;2023-05-16T10:21:28;94866.88;;;20.45;60.96
36192;BME280;22233;42.708;23.360;2023-05-16T10:23:56;94867.31;;;20.68;60.20
36192;BME280;22233;42.708;23.360;2023-05-16T10:26:23;94873.16;;;20.42;60.56
36192;BME280;22233;42.708;23.360;2023-05-16T10:28:50;94864.09;;;20.41;60.42
36192;BME280;22233;42.708;23.360;2023-05-16T10:31:16;94856.25;;;20.50;60.13
36192;BME280;22233;42.708;23.360;2023-05-16T10:33:41;94853.03;;;20.38;60.84
36192;BME280;22233;42.708;23.360;2023-05-16T10:36:10;94847.91;;;20.40;60.82
36192;BME280;22233;42.708;23.360;2023-05-16T10:38:37;94851.06;;;20.38;60.28
36192;BME280;22233;42.708;23.360;2023-05-16T10:41:04;94841.25;;;20.41;61.10
36192;BME280;22233;42.708;23.360;2023-05-16T10:43:30;94844.47;;;20.61;60.16
36192;BME280;22233;42.708;23.360;2023-05-16T10:45:57;94834.19;;;20.68;59.20
36192;BME280;22233;42.708;23.360;2023-05-16T10:48:52;94812.16;;;20.79;59.44
36192;BME280;22233;42.708;23.360;2023-05-16T10:53:46;94815.31;;;20.99;58.89
36192;BME280;22233;42.708;23.360;2023-05-16T10:56:11;94823.19;;;20.72;59.62
36192;BME280;22233;42.708;23.360;2023-05-16T11:14:39;94842.03;;;20.45;59.33
36192;BME280;22233;42.708;23.360;2023-05-16T11:19:46;94840.44;;;20.44;59.66
36192;BME280;22233;42.708;23.360;2023-05-16T11:25:02;94859.47;;;20.85;58.72
36192;BME280;22233;42.708;23.360;2023-05-16T11:32:25;94873.19;;;20.56;59.92
36192;BME280;22233;42.708;23.360;2023-05-16T11:34:51;94866.56;;;20.82;59.04
36192;BME280;22233;42.708;23.360;2023-05-16T11:37:18;94859.50;;;21.13;58.68
36192;BME280;22233;42.708;23.360;2023-05-16T11:39:44;94849.22;;;21.50;57.27
36192;BME280;22233;42.708;23.360;2023-05-16T11:42:10;94847.63;;;21.52;56.22
36192;BME280;22233;42.708;23.360;2023-05-16T11:44:37;94836.16;;;21.76;56.71
36192;BME280;22233;42.708;23.360;2023-05-16T11:47:02;94839.31;;;21.81;56.26
36192;BME280;22233;42.708;23.360;2023-05-16T11:49:28;94837.00;;;21.44;56.85
36192;BME280;22233;42.708;23.360;2023-05-16T11:51:54;94828.69;;;21.54;56.79
36192;BME280;22233;42.708;23.360;2023-05-16T11:54:21;94830.66;;;21.58;56.96
36192;BME280;22233;42.708;23.360;2023-05-16T11:56:47;94823.56;;;21.57;57.36
36192;BME280;22233;42.708;23.360;2023-05-16T11:59:13;94838.19;;;21.53;57.19
36192;BME280;22233;42.708;23.360;2023-05-16T12:01:39;94823.97;;;21.12;58.13
36192;BME280;22233;42.708;23.360;2023-05-16T12:04:09;94806.59;;;21.40;57.69
36192;BME280;22233;42.708;23.360;2023-05-16T12:06:39;94803.06;;;21.43;57.39
36192;BME280;22233;42.708;23.360;2023-05-16T12:09:11;94805.03;;;21.46;57.58
36192;BME280;22233;42.708;23.360;2023-05-16T12:11:41;94797.84;;;21.70;56.32
36192;BME280;22233;42.708;23.360;2023-05-16T12:14:09;94781.97;;;22.00;56.71
36192;BME280;22233;42.708;23.360;2023-05-16T12:16:37;94781.06;;;22.17;55.94
36192;BME280;22233;42.708;23.360;2023-05-16T12:19:05;94800.81;;;22.26;55.50
36192;BME280;22233;42.708;23.360;2023-05-16T12:21:39;94798.81;;;22.34;55.54
36192;BME280;22233;42.708;23.360;2023-05-16T12:24:08;94799.84;;;22.58;54.63
36192;BME280;22233;42.708;23.360;2023-05-16T12:26:35;94787.66;;;22.48;54.40
36192;BME280;22233;42.708;23.360;2023-05-16T12:29:01;94789.53;;;22.62;54.03
36192;BME280;22233;42.708;23.360;2023-05-16T12:31:35;94797.47;;;22.60;53.48
36192;BME280;22233;42.708;23.360;2023-05-16T12:34:01;94795.66;;;22.36;54.73
36192;BME280;22233;42.708;23.360;2023-05-16T12:36:31;94795.88;;;22.59;54.38
36192;BME280;22233;42.708;23.360;2023-05-16T12:39:01;94797.16;;;22.44;54.28
36192;BME280;22233;42.708;23.360;2023-05-16T12:41:29;94802.31;;;22.42;54.43
36192;BME280;22233;42.708;23.360;2023-05-16T12:44:12;94787.38;;;22.21;54.49
36192;BME280;22233;42.708;23.360;2023-05-16T12:46:58;94798.56;;;21.92;55.77
36192;BME280;22233;42.708;23.360;2023-05-16T12:49:24;94796.91;;;22.13;54.93
36192;BME280;22233;42.708;23.360;2023-05-16T12:51:51;94791.09;;;21.82;55.66
36192;BME280;22233;42.708;23.360;2023-05-16T12:54:16;94805.75;;;21.76;56.44
36192;BME280;22233;42.708;23.360;2023-05-16T12:56:42;94803.72;;;21.87;55.97
36192;BME280;22233;42.708;23.360;2023-05-16T12:59:08;94811.28;;;21.72;56.32
36192;BME280;22233;42.708;23.360;2023-05-16T13:01:36;94805.03;;;21.28;57.55
36192;BME280;22233;42.708;23.360;2023-05-16T13:04:02;94817.25;;;21.38;58.37
36192;BME280;22233;42.708;23.360;2023-05-16T13:06:28;94801.09;;;21.22;57.01
36192;BME280;22233;42.708;23.360;2023-05-16T13:08:53;94810.16;;;21.37;56.75
36192;BME280;22233;42.708;23.360;2023-05-16T13:11:19;94816.47;;;21.16;56.96
36192;BME280;22233;42.708;23.360;2023-05-16T13:13:45;94807.00;;;21.28;57.18
36192;BME280;22233;42.708;23.360;2023-05-16T13:16:10;94809.75;;;21.21;57.17
36192;BME280;22233;42.708;23.360;2023-05-16T13:18:36;94801.13;;;20.93;57.34
36192;BME280;22233;42.708;23.360;2023-05-16T13:21:02;94803.09;;;21.04;57.40
36192;BME280;22233;42.708;23.360;2023-05-16T13:23:31;94797.16;;;21.12;56.98
36192;BME280;22233;42.708;23.360;2023-05-16T13:25:57;94814.50;;;20.99;58.21
36192;BME280;22233;42.708;23.360;2023-05-16T13:28:23;94813.72;;;21.20;57.10
36192;BME280;22233;42.708;23.360;2023-05-16T13:30:49;94811.34;;;21.14;56.85
36192;BME280;22233;42.708;23.360;2023-05-16T13:33:15;94801.09;;;21.29;56.80
36192;BME280;22233;42.708;23.360;2023-05-16T13:35:40;94812.94;;;21.08;56.94
36192;BME280;22233;42.708;23.360;2023-05-16T13:38:06;94818.09;;;21.03;57.21
36192;BME280;22233;42.708;23.360;2023-05-16T13:40:31;94803.88;;;21.08;57.51
36192;BME280;22233;42.708;23.360;2023-05-16T13:42:57;94810.56;;;21.21;57.35
36192;BME280;22233;42.708;23.360;2023-05-16T13:45:22;94797.13;;;21.41;56.75
36192;BME280;22233;42.708;23.360;2023-05-16T13:47:48;94809.34;;;21.62;55.92
36192;BME280;22233;42.708;23.360;2023-05-16T13:50:13;94816.47;;;21.27;56.99
36192;BME280;22233;42.708;23.360;2023-05-16T13:52:39;94817.28;;;21.02;57.30
36192;BME280;22233;42.708;23.360;2023-05-16T13:55:05;94837.38;;;21.21;56.90
36192;BME280;22233;42.708;23.360;2023-05-16T13:57:31;94832.25;;;21.30;56.44
36192;BME280;22233;42.708;23.360;2023-05-16T13:59:57;94826.72;;;21.23;57.18
36192;BME280;22233;42.708;23.360;2023-05-16T14:02:23;94840.94;;;21.57;56.41
36192;BME280;22233;42.708;23.360;2023-05-16T14:04:50;94851.97;;;21.68;55.45
36192;BME280;22233;42.708;23.360;2023-05-16T14:07:16;94837.72;;;21.73;55.22
36192;BME280;22233;42.708;23.360;2023-05-16T14:09:41;94835.72;;;21.81;55.21
36192;BME280;22233;42.708;23.360;2023-05-16T14:12:08;94852.34;;;21.70;54.91
36192;BME280;22233;42.708;23.360;2023-05-16T14:14:34;94862.59;;;21.80;55.67
36192;BME280;22233;42.708;23.360;2023-05-16T14:17:00;94863.38;;;21.91;55.80
36192;BME280;22233;42.708;23.360;2023-05-16T14:19:25;94850.31;;;21.88;55.79
36192;BME280;22233;42.708;23.360;2023-05-16T14:21:51;94857.78;;;22.02;55.53
36192;BME280;22233;42.708;23.360;2023-05-16T14:24:16;94845.56;;;22.00;54.86
36192;BME280;22233;42.708;23.360;2023-05-16T14:26:41;94862.88;;;22.14;54.75
36192;BME280;22233;42.708;23.360;2023-05-16T14:29:07;94851.38;;;22.23;54.71
36192;BME280;22233;42.708;23.360;2023-05-16T14:31:32;94866.38;;;22.37;55.40
36192;BME280;22233;42.708;23.360;2023-05-16T14:34:00;94855.63;;;22.49;53.60
36192;BME280;22233;42.708;23.360;2023-05-16T14:36:26;94866.38;;;22.37;53.77
36192;BME280;22233;42.708;23.360;2023-05-16T14:38:51;94864.78;;;22.39;54.51
36192;BME280;22233;42.708;23.360;2023-05-16T14:41:17;94868.75;;;22.34;54.67
36192;BME280;22233;42.708;23.360;2023-05-16T14:43:43;94873.22;;;21.92;56.30
36192;BME280;22233;42.708;23.360;2023-05-16T14:46:09;94889.00;;;22.03;56.86
36192;BME280;22233;42.708;23.360;2023-05-16T14:48:35;94887.78;;;22.14;56.88
36192;BME280;22233;42.708;23.360;2023-05-16T14:51:00;94885.41;;;22.24;57.13
36192;BME280;22233;42.708;23.360;2023-05-16T14:53:26;94901.97;;;22.34;57.41
36192;BME280;22233;42.708;23.360;2023-05-16T14:55:51;94898.81;;;22.25;58.07
36192;BME280;22233;42.708;23.360;2023-05-16T14:58:16;94897.66;;;22.16;57.50
36192;BME280;22233;42.708;23.360;2023-05-16T15:00:42;94886.28;;;21.85;58.78
36192;BME280;22233;42.708;23.360;2023-05-16T15:03:07;94898.13;;;21.06;60.73
36192;BME280;22233;42.708;23.360;2023-05-16T15:05:33;94899.72;;;21.18;60.84
36192;BME280;22233;42.708;23.360;2023-05-16T15:07:58;94899.38;;;21.52;61.42
36192;BME280;22233;42.708;23.360;2023-05-16T15:10:24;94903.69;;;21.03;61.86
36192;BME280;22233;42.708;23.360;2023-05-16T15:12:50;94898.47;;;20.65;63.57
36192;BME280;22233;42.708;23.360;2023-05-16T15:15:15;94889.41;;;20.72;63.91
36192;BME280;22233;42.708;23.360;2023-05-16T15:17:41;94900.88;;;20.92;64.63
36192;BME280;22233;42.708;23.360;2023-05-16T15:20:08;94887.09;;;20.85;63.51
36192;BME280;22233;42.708;23.360;2023-05-16T15:22:34;94898.09;;;20.74;64.57
36192;BME280;22233;42.708;23.360;2023-05-16T15:25:00;94874.38;;;20.55;65.31
36192;BME280;22233;42.708;23.360;2023-05-16T15:27:26;94897.28;;;20.59;65.37
36192;BME280;22233;42.708;23.360;2023-05-16T15:29:52;94892.50;;;20.49;66.53
36192;BME280;22233;42.708;23.360;2023-05-16T15:32:17;94887.38;;;20.58;66.08
36192;BME280;22233;42.708;23.360;2023-05-16T15:34:43;94887.03;;;20.63;66.68
36192;BME280;22233;42.708;23.360;2023-05-16T15:37:08;94881.91;;;20.65;66.48
36192;BME280;22233;42.708;23.360;2023-05-16T15:39:34;94892.56;;;20.63;66.95
36192;BME280;22233;42.708;23.360;2023-05-16T15:42:00;94875.13;;;20.52;66.79
36192;BME280;22233;42.708;23.360;2023-05-16T15:44:28;94885.78;;;20.50;67.69
36192;BME280;22233;42.708;23.360;2023-05-16T15:46:54;94890.94;;;20.55;67.55
36192;BME280;22233;42.708;23.360;2023-05-16T15:49:19;94892.09;;;20.50;68.28
36192;BME280;22233;42.708;23.360;2023-05-16T15:51:46;94878.31;;;20.50;66.99
36192;BME280;22233;42.708;23.360;2023-05-16T15:54:11;94892.50;;;20.49;67.23
36192;BME280;22233;42.708;23.360;2023-05-16T15:56:37;94872.78;;;20.54;66.77
36192;BME280;22233;42.708;23.360;2023-05-16T15:59:02;94884.63;;;20.58;67.26
36192;BME280;22233;42.708;23.360;2023-05-16T16:01:27;94887.81;;;20.60;66.81
36192;BME280;22233;42.708;23.360;2023-05-16T16:03:53;94877.09;;;20.41;66.70
36192;BME280;22233;42.708;23.360;2023-05-16T16:06:19;94879.50;;;20.53;68.13
36192;BME280;22233;42.708;23.360;2023-05-16T16:08:45;94877.56;;;20.61;67.79
36192;BME280;22233;42.708;23.360;2023-05-16T16:11:10;94885.84;;;20.61;67.43
36192;BME280;22233;42.708;23.360;2023-05-16T16:13:35;94878.41;;;20.79;67.52
36192;BME280;22233;42.708;23.360;2023-05-16T16:16:02;94885.50;;;20.98;67.13
36192;BME280;22233;42.708;23.360;2023-05-16T16:18:27;94877.22;;;20.77;66.86
36192;BME280;22233;42.708;23.360;2023-05-16T16:20:53;94890.22;;;20.80;67.64
36192;BME280;22233;42.708;23.360;2023-05-16T16:23:18;94907.16;;;20.67;67.49
36192;BME280;22233;42.708;23.360;2023-05-16T16:25:44;94893.78;;;20.94;66.37
36192;BME280;22233;42.708;23.360;2023-05-16T16:28:09;94908.41;;;21.06;66.51
36192;BME280;22233;42.708;23.360;2023-05-16T16:30:35;94880.78;;;20.91;66.71
36192;BME280;22233;42.708;23.360;2023-05-16T16:33:00;94860.25;;;20.71;65.23
36192;BME280;22233;42.708;23.360;2023-05-16T16:35:25;94868.81;;;20.44;64.21
36192;BME280;22233;42.708;23.360;2023-05-16T16:37:51;94849.41;;;20.08;65.61
36192;BME280;22233;42.708;23.360;2023-05-16T16:40:17;94834.00;;;19.97;65.56
36192;BME280;22233;42.708;23.360;2023-05-16T16:42:43;94822.91;;;19.82;65.95
36192;BME280;22233;42.708;23.360;2023-05-16T16:45:08;94792.97;;;19.77;65.36
36192;BME280;22233;42.708;23.360;2023-05-16T16:47:34;94792.00;;;19.44;66.32
36192;BME280;22233;42.708;23.360;2023-05-16T16:50:00;94757.00;;;19.48;66.19
36192;BME280;22233;42.708;23.360;2023-05-16T16:52:26;94763.97;;;18.76;68.80
36192;BME280;22233;42.708;23.360;2023-05-16T16:54:52;94750.78;;;18.96;67.49
36192;BME280;22233;42.708;23.360;2023-05-16T16:57:17;94731.84;;;18.87;67.63
36192;BME280;22233;42.708;23.360;2023-05-16T16:59:43;94729.22;;;18.57;68.46